Time;durP1;ratioP1;P1;durP2;ratioP2;P2;SDS_P1;SDS_P2;PMS_P1;PMS_P2;Temp;Humidity;BMP_temperature;BMP_pressure;BME280_temperature;BME280_humidity;BME280_pressure;Samples;Min_cycle;Max_cycle;Signal;HPM_P1;HPM_P2
2021/05/20 00:02:49;;;;;;;1.63;1.13;;;9.50;88.60;;;;;;6025929;23;20566;-85
2021/05/20 00:05:16;;;;;;;1.83;1.30;;;9.30;90.20;;;;;;6026195;23;20174;-85
2021/05/20 00:07:43;;;;;;;1.25;1.00;;;9.40;90.00;;;;;;6025883;23;20177;-85
2021/05/20 00:10:12;;;;;;;1.70;0.90;;;9.60;87.70;;;;;;6026104;23;20179;-85
2021/05/20 00:12:38;;;;;;;1.10;1.00;;;9.40;88.30;;;;;;6027089;23;20198;-85
2021/05/20 01:28:25;;;;;;;1.38;1.27;;;9.40;90.90;;;;;;6025770;23;20210;-85
2021/05/20 01:31:26;;;;;;;1.17;1.08;;;9.40;91.30;;;;;;6026983;23;20186;-85
2021/05/20 01:33:52;;;;;;;1.45;1.30;;;9.50;91.30;;;;;;6025809;23;20285;-86
2021/05/20 01:36:25;;;;;;;1.10;1.00;;;9.60;91.30;;;;;;6026702;23;20185;-85
2021/05/20 01:38:52;;;;;;;1.73;1.20;;;9.50;90.60;;;;;;6026246;23;20206;-85
2021/05/20 01:41:18;;;;;;;1.30;1.20;;;9.40;91.50;;;;;;6026564;23;20190;-85
2021/05/20 01:43:45;;;;;;;1.90;1.27;;;9.40;91.90;;;;;;6025808;23;20209;-85
2021/05/20 01:46:12;;;;;;;1.25;1.15;;;9.40;92.30;;;;;;6026989;23;20178;-85
2021/05/20 01:48:40;;;;;;;1.63;1.02;;;9.40;92.10;;;;;;6025810;23;20208;-85
2021/05/20 01:51:08;;;;;;;3.13;1.05;;;9.30;92.50;;;;;;6026249;23;20203;-84
2021/05/20 01:53:35;;;;;;;1.40;1.30;;;9.20;93.00;;;;;;6024957;23;20217;-86
2021/05/20 01:59:34;;;;;;;1.23;0.93;;;9.30;92.20;;;;;;6025981;23;20213;-85
2021/05/20 02:02:00;;;;;;;1.00;0.90;;;9.20;91.80;;;;;;6026316;23;20274;-85
2021/05/20 02:04:27;;;;;;;1.85;1.25;;;9.20;92.30;;;;;;6025079;23;20209;-85
2021/05/20 02:06:54;;;;;;;1.55;1.00;;;9.40;91.60;;;;;;6025655;23;20219;-85
2021/05/20 02:09:21;;;;;;;1.20;1.10;;;9.20;91.60;;;;;;6025223;23;20542;-85
2021/05/20 02:11:47;;;;;;;2.15;1.05;;;9.10;92.20;;;;;;6026245;23;20718;-85
2021/05/20 02:14:15;;;;;;;1.52;1.10;;;9.20;91.60;;;;;;6010993;23;20219;-85
2021/05/20 02:17:05;;;;;;;0.88;0.88;;;9.30;91.80;;;;;;5998325;24;20164;-85
2021/05/20 02:22:58;;;;;;;1.13;1.02;;;9.30;91.30;;;;;;5996096;24;20170;-84
2021/05/20 02:29:26;;;;;;;1.50;1.05;;;9.00;92.30;;;;;;5998112;23;20311;-85
2021/05/20 02:32:06;;;;;;;1.10;1.00;;;9.10;92.00;;;;;;5997446;24;20207;-84
2021/05/20 02:34:32;;;;;;;1.65;1.15;;;9.10;91.80;;;;;;5996920;24;20222;-84
2021/05/20 02:37:04;;;;;;;1.42;0.85;;;9.20;91.90;;;;;;5998076;24;20194;-85
2021/05/20 02:39:48;;;;;;;1.92;1.15;;;9.10;91.40;;;;;;5996958;24;20674;-85
2021/05/20 02:42:15;;;;;;;1.17;1.08;;;9.10;91.90;;;;;;5997900;24;20183;-85
2021/05/20 02:44:41;;;;;;;0.85;0.85;;;9.10;92.10;;;;;;5997354;24;20187;-84
2021/05/20 02:47:08;;;;;;;1.42;1.00;;;9.30;91.50;;;;;;5997311;24;20549;-85
2021/05/20 02:49:53;;;;;;;1.45;0.90;;;9.20;91.20;;;;;;5994576;24;20184;-85
2021/05/20 03:06:10;;;;;;;1.40;0.90;;;8.90;92.00;;;;;;5995655;24;20595;-84
2021/05/20 03:08:36;;;;;;;1.13;0.90;;;8.90;91.70;;;;;;5995627;24;20203;-85
2021/05/20 03:11:03;;;;;;;0.80;0.80;;;8.90;91.80;;;;;;5996843;24;20253;-85
2021/05/20 03:57:31;;;;;;;1.85;0.90;;;9.20;91.10;;;;;;6022905;23;20202;-85
2021/05/20 04:00:53;;;;;;;3.38;0.93;;;9.20;90.50;;;;;;6027674;23;20173;-84
2021/05/20 04:03:24;;;;;;;1.05;0.90;;;9.20;90.70;;;;;;6027533;23;20258;-85
2021/05/20 04:06:12;;;;;;;1.92;1.00;;;9.30;90.90;;;;;;6028746;23;20163;-86
2021/05/20 04:08:38;;;;;;;1.05;0.93;;;9.40;90.50;;;;;;6027156;23;20210;-85
2021/05/20 04:11:05;;;;;;;1.38;0.80;;;9.40;90.50;;;;;;6027019;23;20250;-84
2021/05/20 04:18:44;;;;;;;2.03;1.20;;;9.70;90.60;;;;;;6021199;23;20206;-86
2021/05/20 04:21:10;;;;;;;2.47;1.10;;;9.60;90.60;;;;;;6025199;23;20183;-86
2021/05/20 04:23:42;;;;;;;5.53;2.35;;;9.70;90.10;;;;;;6024301;23;20217;-89
2021/05/20 04:26:09;;;;;;;1.92;1.30;;;9.70;90.60;;;;;;6025751;23;20178;-86
2021/05/20 04:28:35;;;;;;;2.92;1.20;;;9.70;90.00;;;;;;6023706;23;20206;-87
2021/05/20 04:31:02;;;;;;;2.10;1.35;;;9.70;90.10;;;;;;5999625;23;20198;-89
2021/05/20 04:33:28;;;;;;;2.42;1.40;;;9.70;90.00;;;;;;6023580;23;20211;-86
2021/05/20 04:35:56;;;;;;;2.30;1.27;;;9.70;90.60;;;;;;6024322;23;20525;-85
2021/05/20 04:38:23;;;;;;;2.22;1.40;;;9.70;90.60;;;;;;6024033;23;20262;-87
2021/05/20 04:40:49;;;;;;;1.65;1.20;;;9.80;90.60;;;;;;6024685;23;20705;-88
2021/05/20 04:43:16;;;;;;;2.58;1.35;;;9.70;90.20;;;;;;6024094;23;20261;-86
2021/05/20 04:45:44;;;;;;;3.15;1.38;;;9.80;90.60;;;;;;6024693;23;20179;-86
2021/05/20 04:48:11;;;;;;;1.60;1.27;;;9.80;90.40;;;;;;6023638;23;20210;-86
2021/05/20 04:50:37;;;;;;;1.52;1.25;;;9.80;90.60;;;;;;6024643;23;20274;-90
2021/05/20 04:53:04;;;;;;;4.22;1.30;;;9.70;90.60;;;;;;6024323;23;20262;-87
2021/05/20 04:55:31;;;;;;;2.25;1.35;;;9.80;90.60;;;;;;6024511;23;20177;-87
2021/05/20 04:57:57;;;;;;;1.15;1.05;;;9.90;89.90;;;;;;6024330;23;20206;-86
2021/05/20 05:00:24;;;;;;;4.07;1.52;;;9.90;90.60;;;;;;6025866;23;20234;-85
2021/05/20 05:02:51;;;;;;;2.15;1.20;;;10.00;90.10;;;;;;6001163;23;20234;-86
2021/05/20 05:05:18;;;;;;;1.40;1.30;;;10.10;90.00;;;;;;6026848;23;20174;-85
2021/05/20 05:07:44;;;;;;;2.88;1.30;;;10.20;86.20;;;;;;6025852;23;20253;-86
2021/05/20 05:10:13;;;;;;;3.55;1.40;;;10.30;87.00;;;;;;6027331;23;20182;-85
2021/05/20 05:12:58;;;;;;;2.00;1.30;;;10.40;87.00;;;;;;6002205;23;20231;-85
2021/05/20 05:15:24;;;;;;;2.42;1.45;;;10.30;83.70;;;;;;5999424;23;20199;-86
2021/05/20 05:17:50;;;;;;;2.25;1.30;;;10.20;85.30;;;;;;5999428;24;20197;-85
2021/05/20 05:20:18;;;;;;;2.67;1.33;;;10.20;85.70;;;;;;5999490;24;20266;-86
2021/05/20 05:22:45;;;;;;;2.20;1.55;;;10.30;84.30;;;;;;5997884;24;20632;-88
2021/05/20 05:25:12;;;;;;;4.00;1.50;;;10.10;85.40;;;;;;5998516;24;20230;-85
2021/05/20 05:27:39;;;;;;;3.35;1.30;;;10.10;85.00;;;;;;5998217;24;20235;-86
2021/05/20 05:30:06;;;;;;;7.78;1.80;;;10.10;85.60;;;;;;5995734;24;20259;-87
2021/05/20 05:32:33;;;;;;;4.05;1.50;;;10.10;86.70;;;;;;5995246;24;20214;-87
2021/05/20 05:34:59;;;;;;;3.40;1.35;;;10.30;84.80;;;;;;5973905;24;20179;-86
2021/05/20 05:37:52;;;;;;;5.30;1.30;;;10.30;84.70;;;;;;5996695;24;20179;-86
2021/05/20 05:40:19;;;;;;;3.38;1.70;;;10.20;86.40;;;;;;5996585;24;20168;-86
2021/05/20 05:42:45;;;;;;;2.63;1.30;;;10.20;86.60;;;;;;5996450;24;20207;-85
2021/05/20 05:45:12;;;;;;;2.00;1.38;;;10.30;85.70;;;;;;5949749;24;20262;-85
2021/05/20 05:47:38;;;;;;;2.95;1.55;;;10.40;84.50;;;;;;5998408;24;20234;-85
2021/05/20 06:07:49;;;;;;;3.20;1.77;;;11.60;75.00;;;;;;5997983;24;20164;-87
2021/05/20 06:16:24;;;;;;;3.00;1.27;;;11.60;75.70;;;;;;6018561;23;20210;-86
2021/05/20 06:18:53;;;;;;;4.20;1.38;;;11.70;75.90;;;;;;6023975;23;20254;-85
2021/05/20 06:21:39;;;;;;;1.80;1.20;;;11.90;75.10;;;;;;6024724;23;20207;-86
2021/05/20 06:24:10;;;;;;;1.80;1.25;;;11.90;75.10;;;;;;6025992;23;20171;-85
2021/05/20 06:26:37;;;;;;;4.38;1.30;;;11.90;75.10;;;;;;6021290;23;20167;-86
2021/05/20 06:29:19;;;;;;;2.40;1.23;;;12.00;73.50;;;;;;6025166;23;20175;-87
2021/05/20 06:31:46;;;;;;;4.18;1.52;;;12.10;75.20;;;;;;6019395;23;20194;-88
2021/05/20 06:34:16;;;;;;;2.00;1.38;;;12.30;71.90;;;;;;6023258;23;20273;-89
2021/05/20 06:36:44;;;;;;;2.90;1.45;;;12.30;71.70;;;;;;6026803;23;20252;-86
2021/05/20 06:39:14;;;;;;;4.30;1.40;;;12.30;74.00;;;;;;5987695;23;20282;-88
2021/05/20 06:41:41;;;;;;;3.03;1.73;;;12.40;72.10;;;;;;6025952;23;20202;-85
2021/05/20 06:47:29;;;;;;;2.72;1.40;;;12.30;73.00;;;;;;6029185;23;20142;-86
2021/05/20 06:53:35;;;;;;;3.17;1.63;;;12.30;71.20;;;;;;6021189;23;20170;-87
2021/05/20 07:00:00;;;;;;;3.75;1.20;;;12.80;68.70;;;;;;6028613;23;20177;-89
2021/05/20 07:02:31;;;;;;;1.85;1.65;;;12.60;66.80;;;;;;6027186;23;20229;-89
2021/05/20 07:05:25;;;;;;;1.30;1.20;;;12.50;70.20;;;;;;6031488;23;20178;-90
2021/05/20 07:07:52;;;;;;;6.15;1.50;;;12.40;71.40;;;;;;6026750;23;20207;-89
2021/05/20 07:10:18;;;;;;;5.93;1.25;;;12.30;71.50;;;;;;6028752;23;20179;-91
2021/05/20 07:12:46;;;;;;;7.57;1.80;;;12.40;68.80;;;;;;6027949;23;20260;-90
2021/05/20 07:17:49;;;;;;;6.55;1.40;;;12.70;67.20;;;;;;5975222;24;20198;-88
2021/05/20 07:20:18;;;;;;;2.22;1.40;;;13.20;66.40;;;;;;5924469;24;20184;-89
2021/05/20 07:23:09;;;;;;;3.88;1.55;;;13.20;65.80;;;;;;5949121;24;20237;-90
2021/05/20 07:25:42;;;;;;;3.30;1.30;;;13.00;65.30;;;;;;5974665;24;20191;-89
2021/05/20 07:32:42;;;;;;;2.08;1.10;;;12.50;69.30;;;;;;5973714;24;20274;-89
2021/05/20 07:46:16;;;;;;;3.70;1.10;;;13.70;57.70;;;;;;5971468;24;20169;-89
2021/05/20 07:48:44;;;;;;;1.60;0.88;;;13.70;57.20;;;;;;5972922;24;20184;-91
2021/05/20 07:51:12;;;;;;;1.27;1.10;;;13.50;58.50;;;;;;5972734;24;20189;-90
2021/05/20 07:53:39;;;;;;;1.92;1.20;;;13.40;57.70;;;;;;5976579;24;20184;-89
2021/05/20 07:56:06;;;;;;;1.15;1.05;;;13.40;58.10;;;;;;5977129;24;20168;-90
2021/05/20 07:58:32;;;;;;;2.20;1.25;;;13.70;57.00;;;;;;5969694;24;20208;-89
2021/05/20 08:01:01;;;;;;;3.35;1.23;;;14.00;57.10;;;;;;5966174;24;20251;-88
2021/05/20 08:03:30;;;;;;;3.20;1.27;;;14.50;53.60;;;;;;5967008;24;20219;-89
2021/05/20 08:06:54;;;;;;;1.55;1.20;;;14.30;50.70;;;;;;5970335;24;20203;-88
2021/05/20 08:23:17;;;;;;;2.20;1.10;;;11.40;76.10;;;;;;6015592;23;20236;-89
2021/05/20 08:26:27;;;;;;;1.23;0.90;;;11.50;77.20;;;;;;6029380;23;20598;-89
2021/05/20 08:35:54;;;;;;;2.53;1.08;;;13.70;69.20;;;;;;6017505;23;20193;-89
2021/05/20 08:38:21;;;;;;;4.28;1.50;;;14.40;62.40;;;;;;6022224;23;20285;-89
2021/05/20 08:40:48;;;;;;;1.25;1.02;;;15.40;59.40;;;;;;6026655;23;20195;-89
2021/05/20 08:43:15;;;;;;;3.05;1.30;;;17.30;52.20;;;;;;5994314;23;20210;-88
2021/05/20 08:45:41;;;;;;;2.60;1.13;;;19.50;43.40;;;;;;6021241;23;20185;-85
2021/05/20 08:48:09;;;;;;;2.65;1.00;;;19.60;37.50;;;;;;6023990;23;20237;-88
2021/05/20 08:50:38;;;;;;;1.10;1.02;;;18.70;38.70;;;;;;6017714;23;20175;-88
2021/05/20 08:53:06;;;;;;;1.10;0.90;;;17.30;42.40;;;;;;6022488;23;20202;-86
2021/05/20 08:55:38;;;;;;;1.02;0.90;;;16.50;48.30;;;;;;5998202;23;20171;-86
2021/05/20 08:58:05;;;;;;;1.23;0.80;;;16.60;49.10;;;;;;5998503;23;20662;-87
2021/05/20 09:00:32;;;;;;;0.98;0.98;;;17.90;45.10;;;;;;6021391;23;20179;-89
2021/05/20 09:03:06;;;;;;;1.77;0.80;;;19.10;39.00;;;;;;6025845;23;20270;-88
2021/05/20 09:05:33;;;;;;;0.98;0.90;;;18.90;37.10;;;;;;6025255;23;20182;-87
2021/05/20 09:08:02;;;;;;;2.10;1.15;;;17.90;41.60;;;;;;6025406;23;20206;-87
2021/05/20 09:10:31;;;;;;;1.73;1.13;;;17.10;43.30;;;;;;6027738;23;20709;-88
2021/05/20 09:12:59;;;;;;;3.05;1.40;;;16.90;47.60;;;;;;6019440;23;20215;-87
2021/05/20 09:15:31;;;;;;;2.42;1.50;;;17.80;44.60;;;;;;5993623;23;20206;-85
2021/05/20 09:18:11;;;;;;;1.67;1.40;;;19.60;39.80;;;;;;5991657;24;20213;-84
2021/05/20 09:20:39;;;;;;;1.30;1.00;;;21.20;33.10;;;;;;5996859;24;20175;-83
2021/05/20 09:23:07;;;;;;;0.93;0.80;;;20.40;32.20;;;;;;5992439;24;20217;-85
2021/05/20 09:25:36;;;;;;;2.42;0.82;;;19.20;31.40;;;;;;5996096;24;20188;-88
2021/05/20 09:28:04;;;;;;;1.08;0.85;;;17.80;35.20;;;;;;5992806;24;20207;-90
2021/05/20 09:30:31;;;;;;;1.35;0.80;;;16.70;39.00;;;;;;5998486;24;20184;-86
2021/05/20 09:33:00;;;;;;;1.00;0.90;;;15.80;41.80;;;;;;5993308;24;20217;-87
2021/05/20 09:35:28;;;;;;;0.85;0.80;;;15.20;45.70;;;;;;5996951;24;20194;-87
2021/05/20 09:38:00;;;;;;;2.25;1.00;;;14.80;45.10;;;;;;5993945;24;20284;-87
2021/05/20 09:40:28;;;;;;;1.40;1.10;;;14.70;47.40;;;;;;5988196;24;20180;-90
2021/05/20 09:42:56;;;;;;;2.95;1.00;;;15.20;51.50;;;;;;5993885;24;20258;-89
2021/05/20 09:45:24;;;;;;;3.10;1.00;;;17.30;43.10;;;;;;5995356;24;20213;-86
2021/05/20 09:47:51;;;;;;;1.23;1.13;;;19.80;35.10;;;;;;5991831;24;20255;-83
2021/05/20 09:50:20;;;;;;;2.05;1.27;;;21.10;33.00;;;;;;5995321;24;20228;-85
2021/05/20 09:52:47;;;;;;;2.25;1.10;;;22.40;28.90;;;;;;5992172;24;20275;-86
2021/05/20 09:55:25;;;;;;;2.35;1.20;;;23.60;26.80;;;;;;5994198;24;20257;-85
2021/05/20 09:57:52;;;;;;;1.20;1.10;;;24.10;28.20;;;;;;5990944;24;20202;-85
2021/05/20 10:00:25;;;;;;;2.83;1.40;;;24.80;24.50;;;;;;5992386;24;20235;-85
2021/05/20 10:03:02;;;;;;;2.75;1.30;;;25.60;24.80;;;;;;5985958;24;20666;-87
2021/05/20 10:05:33;;;;;;;2.10;1.42;;;25.70;19.70;;;;;;5990821;24;20167;-85
2021/05/20 10:08:04;;;;;;;1.40;1.30;;;25.80;22.50;;;;;;5989999;24;20229;-85
2021/05/20 10:10:34;;;;;;;2.17;1.20;;;26.00;21.90;;;;;;5989305;24;20230;-86
2021/05/20 10:13:03;;;;;;;1.95;1.50;;;26.30;19.50;;;;;;5992819;24;20270;-84
2021/05/20 10:15:33;;;;;;;1.98;1.50;;;25.70;22.30;;;;;;5995368;24;20167;-84
2021/05/20 10:18:03;;;;;;;1.67;1.15;;;26.10;21.30;;;;;;5989896;24;20203;-85
2021/05/20 10:20:30;;;;;;;2.10;1.10;;;25.20;21.30;;;;;;5995130;24;20171;-85
2021/05/20 10:22:59;;;;;;;2.13;1.20;;;23.40;23.80;;;;;;5991798;24;20210;-84
2021/05/20 10:25:26;;;;;;;3.13;1.00;;;22.00;28.00;;;;;;5992646;24;20231;-85
2021/05/20 10:28:00;;;;;;;7.90;2.05;;;20.80;30.90;;;;;;5995084;24;20203;-83
2021/05/20 10:30:27;;;;;;;2.22;1.40;;;19.50;31.60;;;;;;5968222;24;20496;-90
2021/05/20 10:32:59;;;;;;;2.13;1.10;;;18.90;33.80;;;;;;5990702;24;20215;-90
2021/05/20 10:35:43;;;;;;;1.17;1.08;;;18.30;33.80;;;;;;5996633;24;20180;-88
2021/05/20 10:38:11;;;;;;;1.88;1.10;;;17.90;37.30;;;;;;5995712;24;20211;-89
2021/05/20 10:40:40;;;;;;;4.25;1.10;;;17.60;37.00;;;;;;5996225;24;20277;-90
2021/05/20 10:43:14;;;;;;;3.15;1.40;;;17.70;40.00;;;;;;5990170;24;20221;-88
2021/05/20 10:45:57;;;;;;;1.45;1.10;;;18.00;36.50;;;;;;5996162;24;20171;-85
2021/05/20 10:48:26;;;;;;;5.88;1.17;;;18.60;33.60;;;;;;5994883;24;20207;-85
2021/05/20 10:50:59;;;;;;;4.32;1.38;;;18.40;35.20;;;;;;5993298;24;20203;-89
2021/05/20 10:53:49;;;;;;;3.60;1.15;;;18.50;40.40;;;;;;5995537;24;20283;-88
2021/05/20 10:57:00;;;;;;;2.55;1.27;;;19.40;35.10;;;;;;5994637;24;20596;-85
2021/05/20 10:59:41;;;;;;;3.03;1.23;;;20.60;32.50;;;;;;5994092;24;20680;-83
2021/05/20 11:02:14;;;;;;;3.05;1.45;;;21.00;29.10;;;;;;5992802;24;20218;-91
2021/05/20 11:04:43;;;;;;;1.73;1.10;;;20.80;29.90;;;;;;5997777;24;20183;-87
2021/05/20 11:07:09;;;;;;;1.88;0.95;;;20.20;29.00;;;;;;5996761;24;20180;-88
2021/05/20 11:09:43;;;;;;;1.90;0.95;;;19.50;33.50;;;;;;5996414;24;20176;-88
2021/05/20 11:12:10;;;;;;;4.07;1.35;;;18.70;34.50;;;;;;5993419;24;20227;-86
2021/05/20 11:14:40;;;;;;;4.03;0.73;;;18.40;34.00;;;;;;5998171;23;20199;-86
2021/05/20 11:17:38;;;;;;;3.15;1.23;;;18.20;33.40;;;;;;5996879;24;20811;-89
2021/05/20 11:20:44;;;;;;;2.13;1.10;;;17.70;33.50;;;;;;5913351;24;20200;-90
2021/05/20 11:30:19;;;;;;;1.83;0.65;;;16.00;43.00;;;;;;5854792;24;20166;-89
2021/05/20 11:32:53;;;;;;;0.88;0.73;;;15.30;47.10;;;;;;5857963;24;20206;-89
2021/05/20 11:52:39;;;;;;;2.38;1.05;;;17.40;41.50;;;;;;5858287;24;20213;-89
2021/05/20 12:20:45;;;;;;;0.80;0.70;;;15.40;47.30;;;;;;6016904;23;20202;-91
2021/05/20 12:23:12;;;;;;;2.22;1.10;;;15.50;46.60;;;;;;6018287;23;20242;-92
2021/05/20 12:25:38;;;;;;;1.80;1.05;;;15.20;43.40;;;;;;6018045;23;20183;-90
2021/05/20 12:28:10;;;;;;;2.03;1.10;;;15.20;45.50;;;;;;6017707;23;20207;-89
2021/05/20 12:30:37;;;;;;;0.63;0.63;;;15.30;44.80;;;;;;6019947;23;20178;-91
2021/05/20 12:33:09;;;;;;;0.85;0.60;;;15.40;43.10;;;;;;6017218;23;20237;-89
2021/05/20 12:35:41;;;;;;;0.77;0.77;;;15.60;43.80;;;;;;6018662;23;20238;-89
2021/05/20 12:38:09;;;;;;;4.60;1.40;;;16.10;40.40;;;;;;6019403;23;20730;-89
2021/05/20 12:40:38;;;;;;;1.15;0.70;;;16.40;40.50;;;;;;6022102;23;20230;-89
2021/05/20 12:43:17;;;;;;;0.57;0.57;;;16.40;38.70;;;;;;6020170;23;20272;-89
2021/05/20 12:45:51;;;;;;;0.75;0.70;;;16.40;39.30;;;;;;6019886;23;20626;-89
2021/05/20 12:48:25;;;;;;;0.63;0.63;;;16.30;37.50;;;;;;6019599;23;20229;-88
2021/05/20 12:50:53;;;;;;;1.42;1.33;;;16.30;38.30;;;;;;6019362;23;20181;-90
2021/05/20 12:53:42;;;;;;;0.63;0.60;;;16.40;39.10;;;;;;6020828;23;20206;-89
2021/05/20 12:56:30;;;;;;;0.68;0.65;;;16.60;38.70;;;;;;6020024;23;20171;-88
2021/05/20 12:58:58;;;;;;;0.52;0.52;;;17.00;36.50;;;;;;5990828;23;20276;-92
2021/05/20 13:01:25;;;;;;;1.13;1.02;;;17.20;36.10;;;;;;6018922;23;20187;-89
2021/05/20 13:03:56;;;;;;;0.70;0.70;;;17.50;34.40;;;;;;6022154;23;20210;-89
2021/05/20 13:06:28;;;;;;;4.18;0.95;;;17.60;33.90;;;;;;6020773;23;20167;-90
2021/05/20 13:09:05;;;;;;;0.55;0.55;;;17.30;38.30;;;;;;6018418;23;20253;-94
2021/05/20 13:11:42;;;;;;;1.48;0.82;;;16.80;36.00;;;;;;6024384;23;20190;-91
2021/05/20 13:14:22;;;;;;;5.68;0.80;;;16.50;39.30;;;;;;6013117;23;20195;-88
2021/05/20 13:16:53;;;;;;;2.95;1.05;;;16.30;40.40;;;;;;5996716;24;20612;-91
2021/05/20 13:24:58;;;;;;;1.95;1.15;;;15.80;44.00;;;;;;5986950;24;20228;-90
2021/05/20 13:27:26;;;;;;;4.50;1.33;;;15.80;41.80;;;;;;5995144;24;20172;-88
2021/05/20 13:30:01;;;;;;;1.20;1.02;;;15.80;43.00;;;;;;5996617;24;20217;-89
2021/05/20 13:32:34;;;;;;;6.70;1.40;;;15.60;42.30;;;;;;5992320;24;20259;-89
2021/05/20 13:35:01;;;;;;;5.28;1.20;;;15.30;43.40;;;;;;5995639;24;20176;-90
2021/05/20 13:37:30;;;;;;;1.70;1.20;;;15.30;44.30;;;;;;5994963;24;20167;-89
2021/05/20 13:40:04;;;;;;;2.03;1.15;;;15.50;44.60;;;;;;5996063;24;20196;-89
2021/05/20 13:42:31;;;;;;;1.25;1.10;;;15.70;43.40;;;;;;5985647;24;20215;-92
2021/05/20 13:44:58;;;;;;;1.20;0.98;;;15.70;43.90;;;;;;5987873;24;20244;-92
2021/05/20 13:47:32;;;;;;;8.07;1.52;;;15.70;45.10;;;;;;5987461;24;20176;-92
2021/05/20 13:50:07;;;;;;;1.75;1.15;;;15.70;46.10;;;;;;5986871;24;20168;-91
2021/05/20 13:52:40;;;;;;;6.15;1.42;;;15.40;47.70;;;;;;5985252;24;20211;-92
2021/05/20 13:55:09;;;;;;;3.55;1.20;;;15.10;51.50;;;;;;5983413;24;20179;-93
2021/05/20 13:57:36;;;;;;;2.50;1.00;;;14.80;54.30;;;;;;5985237;24;20209;-91
2021/05/20 14:00:06;;;;;;;3.83;1.15;;;14.90;51.30;;;;;;5987777;24;20609;-91
2021/05/20 14:02:33;;;;;;;1.63;1.00;;;15.00;54.80;;;;;;5985883;24;20635;-93
2021/05/20 14:05:00;;;;;;;1.30;0.90;;;15.30;53.50;;;;;;5986058;24;20179;-90
2021/05/20 14:07:27;;;;;;;1.63;1.00;;;15.10;51.50;;;;;;5991855;24;20555;-96
2021/05/20 14:09:57;;;;;;;2.25;1.05;;;15.10;51.50;;;;;;5988818;24;20662;-91
2021/05/20 14:12:24;;;;;;;1.25;1.13;;;15.40;51.70;;;;;;5984259;24;20655;-91
2021/05/20 14:14:51;;;;;;;2.95;0.90;;;15.80;45.80;;;;;;5986176;23;20195;-91
2021/05/20 14:17:20;;;;;;;1.67;1.50;;;16.10;45.20;;;;;;5985576;24;20624;-90
2021/05/20 14:19:51;;;;;;;2.92;1.30;;;16.40;43.20;;;;;;5987304;24;20195;-90
2021/05/20 14:22:18;;;;;;;1.27;1.00;;;16.50;43.80;;;;;;5986399;24;20187;-90
2021/05/20 14:24:44;;;;;;;1.55;1.10;;;16.50;43.50;;;;;;5986863;24;20183;-90
2021/05/20 14:27:14;;;;;;;2.05;1.33;;;16.40;43.90;;;;;;5985676;24;20187;-90
2021/05/20 14:29:43;;;;;;;1.02;0.80;;;16.50;43.80;;;;;;5985271;24;20243;-89
2021/05/20 14:32:09;;;;;;;1.58;1.30;;;16.40;42.20;;;;;;5985329;24;20195;-89
2021/05/20 14:34:36;;;;;;;1.38;0.88;;;16.20;42.70;;;;;;5985357;24;20199;-89
2021/05/20 14:37:03;;;;;;;2.78;0.93;;;15.90;42.30;;;;;;5986460;24;20183;-89
2021/05/20 14:39:29;;;;;;;2.88;0.82;;;15.80;43.50;;;;;;5985337;24;20207;-89
2021/05/20 14:41:57;;;;;;;1.13;0.80;;;15.90;40.10;;;;;;5984416;24;20244;-89
2021/05/20 14:44:23;;;;;;;1.13;0.90;;;15.90;40.00;;;;;;5961107;24;20227;-90
2021/05/20 14:46:50;;;;;;;0.77;0.70;;;16.10;37.60;;;;;;5985963;24;20259;-91
2021/05/20 14:51:59;;;;;;;1.40;0.90;;;16.50;40.70;;;;;;5984973;24;20531;-91
2021/05/20 14:54:26;;;;;;;1.25;0.80;;;16.50;36.80;;;;;;5987186;24;20253;-91
2021/05/20 14:57:01;;;;;;;1.05;0.95;;;16.50;36.00;;;;;;5983999;24;20180;-90
2021/05/20 15:05:08;;;;;;;1.20;0.85;;;16.50;37.40;;;;;;5986230;24;20192;-89
2021/05/20 15:07:35;;;;;;;2.45;0.77;;;15.90;39.30;;;;;;5996778;24;20202;-87
2021/05/20 15:10:10;;;;;;;2.65;0.85;;;15.50;40.10;;;;;;5989140;24;20183;-88
2021/05/20 15:12:43;;;;;;;1.83;0.90;;;15.50;42.30;;;;;;5988800;24;20206;-89
2021/05/20 15:15:12;;;;;;;0.82;0.80;;;15.90;40.60;;;;;;5988972;23;20203;-88
2021/05/20 15:17:48;;;;;;;1.63;0.98;;;15.90;38.70;;;;;;5988934;24;20252;-91
2021/05/20 15:20:15;;;;;;;1.20;1.10;;;15.80;40.80;;;;;;5987758;24;20565;-89
2021/05/20 15:22:41;;;;;;;1.55;1.10;;;15.80;41.40;;;;;;5983918;24;20212;-89
2021/05/20 15:25:08;;;;;;;1.33;1.00;;;15.90;43.10;;;;;;5986489;24;20266;-88
2021/05/20 15:27:35;;;;;;;3.95;1.05;;;16.00;41.30;;;;;;5985317;24;20211;-91
2021/05/20 15:30:01;;;;;;;1.90;1.27;;;16.20;41.10;;;;;;5984723;24;20174;-92
2021/05/20 15:32:28;;;;;;;0.70;0.70;;;16.60;37.30;;;;;;5983589;24;20203;-91
2021/05/20 15:34:57;;;;;;;1.92;1.17;;;16.90;35.10;;;;;;5984713;24;20179;-88
2021/05/20 15:37:24;;;;;;;1.48;1.00;;;16.70;34.30;;;;;;5982986;24;20203;-87
2021/05/20 15:39:52;;;;;;;1.40;1.10;;;16.50;34.60;;;;;;5983893;24;20185;-87
2021/05/20 15:42:19;;;;;;;2.67;1.17;;;16.30;35.80;;;;;;5988334;24;20183;-87
2021/05/20 15:44:46;;;;;;;2.40;0.90;;;16.00;37.00;;;;;;5988575;24;20270;-89
2021/05/20 15:47:17;;;;;;;1.90;0.90;;;15.80;34.30;;;;;;5988949;24;20244;-87
2021/05/20 15:52:33;;;;;;;1.92;0.70;;;15.60;35.10;;;;;;5989322;24;20190;-91
2021/05/20 15:55:04;;;;;;;1.25;0.77;;;15.60;36.00;;;;;;5989500;24;20168;-90
2021/05/20 15:57:31;;;;;;;2.03;1.48;;;15.70;36.10;;;;;;5990018;24;20195;-90
2021/05/20 16:00:21;;;;;;;0.65;0.65;;;15.70;35.20;;;;;;5995264;24;20196;-87
2021/05/20 16:02:48;;;;;;;1.85;0.60;;;15.60;35.30;;;;;;5995771;24;20246;-90
2021/05/20 16:05:17;;;;;;;3.80;0.90;;;15.50;35.90;;;;;;5996955;24;20194;-89
2021/05/20 16:17:08;;;;;;;2.35;0.80;;;15.60;36.00;;;;;;6021223;23;20183;-87
2021/05/20 16:19:35;;;;;;;0.43;0.43;;;15.60;35.20;;;;;;6022311;23;20207;-88
2021/05/20 16:22:03;;;;;;;2.60;0.85;;;15.40;36.60;;;;;;6019010;23;20261;-90
2021/05/20 16:33:59;;;;;;;0.93;0.60;;;15.20;36.30;;;;;;6023475;23;20181;-89
2021/05/20 16:36:38;;;;;;;0.90;0.60;;;15.00;37.20;;;;;;6025083;23;20178;-89
2021/05/20 16:39:22;;;;;;;1.42;1.17;;;14.90;38.10;;;;;;6020778;23;20189;-89
2021/05/20 16:41:48;;;;;;;0.65;0.65;;;14.90;38.70;;;;;;6024853;23;20177;-92
2021/05/20 16:44:15;;;;;;;0.80;0.80;;;14.70;40.00;;;;;;6000624;23;20206;-89
2021/05/20 16:46:41;;;;;;;1.67;0.93;;;14.60;39.70;;;;;;6027527;23;20226;-91
2021/05/20 16:55:25;;;;;;;1.63;1.52;;;14.30;41.70;;;;;;6014253;23;20179;-94
2021/05/20 16:58:20;;;;;;;0.77;0.68;;;14.30;41.50;;;;;;6024363;23;20550;-88
2021/05/20 17:03:35;;;;;;;0.73;0.60;;;14.40;41.60;;;;;;6026134;23;20221;-87
2021/05/20 17:09:25;;;;;;;1.80;0.70;;;14.60;40.60;;;;;;6024315;23;20198;-89
2021/05/20 17:12:19;;;;;;;1.10;0.55;;;14.60;41.30;;;;;;6025596;23;20197;-88
2021/05/20 17:14:45;;;;;;;1.42;1.15;;;14.60;41.30;;;;;;6004948;23;20195;-88
2021/05/20 17:17:12;;;;;;;1.52;1.30;;;14.70;41.50;;;;;;5993644;24;20176;-88
2021/05/20 17:19:38;;;;;;;5.38;1.10;;;14.50;42.10;;;;;;5995098;24;20264;-88
2021/05/20 17:22:05;;;;;;;2.42;1.00;;;14.60;41.70;;;;;;5997311;24;20214;-87
2021/05/20 17:25:07;;;;;;;0.95;0.95;;;14.50;42.90;;;;;;5995869;24;20277;-88
2021/05/20 17:41:07;;;;;;;2.22;0.93;;;14.10;45.20;;;;;;5947917;24;20268;-91
2021/05/20 18:07:11;;;;;;;2.70;1.45;;;13.40;50.80;;;;;;6000251;24;20168;-92
2021/05/20 18:09:39;;;;;;;2.05;1.00;;;13.30;49.90;;;;;;5993435;24;20211;-91
2021/05/20 18:12:11;;;;;;;2.00;1.00;;;13.20;51.20;;;;;;5995028;24;20238;-91
2021/05/20 18:14:41;;;;;;;1.83;1.00;;;13.10;52.60;;;;;;5969828;24;20667;-90
2021/05/20 18:17:14;;;;;;;2.50;1.27;;;13.00;52.20;;;;;;5994185;24;20269;-89
2021/05/20 18:20:03;;;;;;;31.77;26.92;;;12.90;53.30;;;;;;5989939;24;20203;-89
2021/05/20 18:22:35;;;;;;;24.90;20.33;;;13.40;58.50;;;;;;5997090;24;20203;-90
2021/05/20 18:25:03;;;;;;;11.70;10.15;;;14.10;56.60;;;;;;5998392;24;20168;-90
2021/05/20 18:27:29;;;;;;;11.90;9.95;;;14.60;52.60;;;;;;5997433;24;20218;-89
2021/05/20 18:30:14;;;;;;;13.50;10.07;;;14.80;51.40;;;;;;5999538;24;20215;-89
2021/05/20 18:32:42;;;;;;;8.18;5.93;;;15.10;51.50;;;;;;5970467;24;20207;-91
2021/05/20 18:35:16;;;;;;;8.27;4.53;;;15.40;50.40;;;;;;5995289;24;20182;-90
2021/05/20 18:38:01;;;;;;;5.72;4.63;;;15.20;51.50;;;;;;5997727;24;20237;-90
2021/05/20 18:40:28;;;;;;;32.15;23.50;;;15.10;51.50;;;;;;5998536;24;20172;-90
2021/05/20 18:43:50;;;;;;;84.80;66.47;;;15.30;51.60;;;;;;5999086;24;20207;-90
2021/05/20 18:46:18;;;;;;;34.35;27.50;;;14.90;51.30;;;;;;5997894;24;20171;-92
2021/05/20 18:48:58;;;;;;;59.47;49.72;;;14.60;51.00;;;;;;5995770;24;20256;-91
2021/05/20 18:51:25;;;;;;;53.70;46.25;;;14.30;52.20;;;;;;5993472;24;20174;-90
2021/05/20 18:53:55;;;;;;;24.00;20.55;;;14.10;53.80;;;;;;5991917;24;20222;-89
2021/05/20 18:56:21;;;;;;;13.40;11.68;;;14.50;52.10;;;;;;5993650;24;20203;-91
2021/05/20 18:58:56;;;;;;;5.90;4.32;;;14.10;54.10;;;;;;5992613;24;20211;-91
2021/05/20 19:01:22;;;;;;;8.02;7.22;;;13.70;56.10;;;;;;5993624;24;20238;-90
2021/05/20 19:03:50;;;;;;;2.80;2.20;;;13.40;58.10;;;;;;5993116;24;20258;-90
2021/05/20 19:06:23;;;;;;;2.08;1.42;;;13.20;59.70;;;;;;5996986;24;20180;-90